Time;durP1;ratioP1;P1;durP2;ratioP2;P2;SDS_P1;SDS_P2;PMS_P1;PMS_P2;Temp;Humidity;BMP_temperature;BMP_pressure;BME280_temperature;BME280_humidity;BME280_pressure;Samples;Min_cycle;Max_cycle;Signal;HPM_P1;HPM_P2
2022/04/08 00:00:52;;;;;;;2.00;0.65;;;;;;;;;;5053128;28;20416;-74
2022/04/08 00:03:18;;;;;;;0.82;0.60;;;;;;;;;;5052941;28;20053;-73
2022/04/08 00:05:45;;;;;;;1.77;0.55;;;;;;;;;;5052789;28;20508;-73
2022/04/08 00:08:11;;;;;;;2.40;0.90;;;;;;;;;;5052796;28;20102;-73
2022/04/08 00:10:38;;;;;;;1.80;0.88;;;;;;;;;;5053132;28;20091;-73
2022/04/08 00:13:04;;;;;;;3.03;1.00;;;;;;;;;;5052609;28;20079;-73
2022/04/08 00:15:33;;;;;;;3.40;1.23;;;;;;;;;;5052728;28;20060;-73
2022/04/08 00:18:00;;;;;;;3.88;1.10;;;;;;;;;;5052507;28;20413;-73
2022/04/08 00:20:26;;;;;;;1.60;1.05;;;;;;;;;;5052708;28;20118;-73
2022/04/08 00:22:53;;;;;;;3.03;1.20;;;;;;;;;;5042839;28;20451;-73
2022/04/08 00:25:20;;;;;;;2.90;0.82;;;;;;;;;;5052380;28;20080;-73
2022/04/08 00:27:46;;;;;;;2.05;0.90;;;;;;;;;;5051327;28;20049;-73
2022/04/08 00:30:13;;;;;;;4.03;0.95;;;;;;;;;;5052237;28;20508;-73
2022/04/08 00:32:39;;;;;;;2.85;0.90;;;;;;;;;;5052484;28;20099;-73
2022/04/08 00:35:06;;;;;;;3.70;0.80;;;;;;;;;;5050999;28;20079;-73
2022/04/08 00:37:32;;;;;;;1.33;0.80;;;;;;;;;;5052283;28;20079;-74
2022/04/08 00:39:59;;;;;;;2.13;1.00;;;;;;;;;;5050264;28;20160;-73
2022/04/08 00:42:25;;;;;;;1.30;0.93;;;;;;;;;;5052132;28;20393;-73
2022/04/08 00:44:51;;;;;;;2.83;0.90;;;;;;;;;;5052369;28;20114;-73
2022/04/08 00:47:18;;;;;;;1.85;1.00;;;;;;;;;;5052043;28;20555;-73
2022/04/08 00:49:44;;;;;;;2.55;0.75;;;;;;;;;;5052230;28;20128;-73
2022/04/08 00:52:11;;;;;;;3.33;0.85;;;;;;;;;;5052120;28;20045;-73
2022/04/08 00:54:38;;;;;;;2.35;0.80;;;;;;;;;;5051753;28;20077;-73
2022/04/08 00:57:05;;;;;;;5.18;1.10;;;;;;;;;;5042459;28;20077;-73
2022/04/08 00:59:32;;;;;;;3.13;0.93;;;;;;;;;;5047425;28;20044;-73
2022/04/08 01:01:58;;;;;;;5.60;1.00;;;;;;;;;;5050504;28;20477;-73
2022/04/08 01:04:27;;;;;;;5.13;2.08;;;;;;;;;;5051925;28;20045;-73
2022/04/08 01:06:54;;;;;;;3.58;1.00;;;;;;;;;;5050527;28;20079;-73
2022/04/08 01:09:21;;;;;;;5.45;1.17;;;;;;;;;;5050334;28;20079;-73
2022/04/08 01:11:48;;;;;;;1.48;0.80;;;;;;;;;;5045524;28;20049;-73
2022/04/08 01:14:16;;;;;;;1.63;0.77;;;;;;;;;;5051731;28;20118;-73
2022/04/08 01:16:43;;;;;;;2.72;1.10;;;;;;;;;;5050585;28;20132;-73
2022/04/08 01:19:09;;;;;;;1.88;0.55;;;;;;;;;;5051836;28;20136;-73
2022/04/08 01:21:36;;;;;;;3.47;0.95;;;;;;;;;;5050283;28;20084;-73
2022/04/08 01:24:03;;;;;;;2.92;0.93;;;;;;;;;;5051639;28;20069;-73
2022/04/08 01:26:29;;;;;;;5.37;0.90;;;;;;;;;;5051846;28;20107;-73
2022/04/08 01:28:56;;;;;;;3.72;1.10;;;;;;;;;;5051759;28;20088;-73
2022/04/08 01:31:29;;;;;;;1.85;0.63;;;;;;;;;;5051446;28;20072;-72
2022/04/08 01:33:56;;;;;;;2.38;0.93;;;;;;;;;;5051673;28;20059;-73
2022/04/08 01:36:22;;;;;;;1.95;0.90;;;;;;;;;;5051612;28;20045;-73
2022/04/08 01:38:48;;;;;;;5.75;1.00;;;;;;;;;;5051578;28;20080;-73
2022/04/08 01:41:18;;;;;;;2.15;1.00;;;;;;;;;;5049977;28;20069;-72
2022/04/08 01:43:44;;;;;;;4.03;0.93;;;;;;;;;;5051606;28;20076;-72
2022/04/08 01:46:11;;;;;;;4.18;1.15;;;;;;;;;;5049896;28;20060;-73
2022/04/08 01:48:37;;;;;;;4.00;1.00;;;;;;;;;;5051294;28;20045;-73
2022/04/08 01:51:04;;;;;;;4.35;1.10;;;;;;;;;;5053047;28;20076;-72
2022/04/08 01:53:30;;;;;;;2.47;0.93;;;;;;;;;;5055137;28;20110;-73
2022/04/08 01:55:57;;;;;;;2.13;0.90;;;;;;;;;;5055065;28;20080;-74
2022/04/08 01:58:23;;;;;;;3.25;0.93;;;;;;;;;;5055363;28;20068;-74
2022/04/08 02:00:49;;;;;;;4.15;1.50;;;;;;;;;;5055440;28;20178;-73
2022/04/08 02:03:20;;;;;;;5.80;1.63;;;;;;;;;;5055009;28;20072;-73
2022/04/08 02:05:46;;;;;;;2.72;1.58;;;;;;;;;;5055104;28;20049;-73
2022/04/08 02:08:13;;;;;;;2.67;1.60;;;;;;;;;;5055421;28;20106;-73
2022/04/08 02:10:39;;;;;;;4.20;1.35;;;;;;;;;;5055212;28;20080;-72
2022/04/08 02:13:06;;;;;;;3.92;1.30;;;;;;;;;;5053619;28;20053;-73
2022/04/08 02:15:33;;;;;;;7.32;1.75;;;;;;;;;;5054755;28;20073;-72
2022/04/08 02:18:00;;;;;;;7.47;1.70;;;;;;;;;;5054777;28;20049;-73
2022/04/08 02:20:28;;;;;;;6.22;1.95;;;;;;;;;;5055034;28;20465;-72
2022/04/08 02:22:54;;;;;;;3.78;1.80;;;;;;;;;;5055087;28;20072;-72
2022/04/08 02:25:20;;;;;;;5.05;1.80;;;;;;;;;;5054608;28;20061;-72
2022/04/08 02:27:47;;;;;;;4.88;1.60;;;;;;;;;;5054933;28;20084;-72
2022/04/08 02:30:13;;;;;;;5.57;1.58;;;;;;;;;;5053531;28;20049;-72
2022/04/08 02:32:40;;;;;;;4.85;1.67;;;;;;;;;;5054606;28;20464;-72
2022/04/08 02:35:07;;;;;;;5.20;1.60;;;;;;;;;;5054656;28;20072;-73
2022/04/08 02:37:33;;;;;;;4.53;1.70;;;;;;;;;;5054702;28;20073;-73
2022/04/08 02:39:59;;;;;;;3.45;1.40;;;;;;;;;;5054412;28;20531;-72
2022/04/08 02:42:30;;;;;;;4.20;1.80;;;;;;;;;;5054345;28;20044;-72
2022/04/08 02:44:57;;;;;;;3.88;1.20;;;;;;;;;;5054342;28;20075;-72
2022/04/08 02:47:23;;;;;;;4.68;1.58;;;;;;;;;;5054223;28;20080;-72
2022/04/08 02:49:50;;;;;;;3.33;1.40;;;;;;;;;;5054934;28;20144;-72
2022/04/08 02:52:16;;;;;;;4.10;1.38;;;;;;;;;;5054376;28;20447;-73
2022/04/08 02:54:43;;;;;;;4.22;1.20;;;;;;;;;;5054474;28;20051;-72
2022/04/08 02:57:09;;;;;;;3.47;1.50;;;;;;;;;;5054349;28;20048;-72
2022/04/08 02:59:36;;;;;;;3.35;1.50;;;;;;;;;;5054011;28;20077;-72
2022/04/08 03:02:03;;;;;;;7.68;2.40;;;;;;;;;;5054222;28;20076;-73
2022/04/08 03:04:29;;;;;;;6.90;2.78;;;;;;;;;;5052838;28;20091;-73
2022/04/08 03:06:58;;;;;;;5.78;3.20;;;;;;;;;;5054224;28;20156;-73
2022/04/08 03:09:24;;;;;;;9.40;3.22;;;;;;;;;;5053823;28;20053;-72
2022/04/08 03:11:51;;;;;;;7.22;2.70;;;;;;;;;;5054065;28;20084;-72
2022/04/08 03:14:18;;;;;;;10.35;3.53;;;;;;;;;;5054008;28;20057;-72
2022/04/08 03:16:44;;;;;;;7.05;2.50;;;;;;;;;;5053884;28;20132;-72
2022/04/08 03:19:11;;;;;;;9.25;3.10;;;;;;;;;;5053942;28;20065;-72
2022/04/08 03:21:39;;;;;;;7.75;3.20;;;;;;;;;;5052482;28;20049;-72
2022/04/08 03:24:06;;;;;;;6.45;3.05;;;;;;;;;;5053624;28;20068;-72
2022/04/08 03:26:32;;;;;;;8.32;3.42;;;;;;;;;;5053556;28;20052;-72
2022/04/08 03:28:59;;;;;;;8.38;3.70;;;;;;;;;;5053359;28;20090;-72
2022/04/08 03:31:25;;;;;;;7.55;3.10;;;;;;;;;;5053784;28;20048;-72
2022/04/08 03:33:51;;;;;;;11.50;3.13;;;;;;;;;;5053434;28;20041;-72
2022/04/08 03:36:18;;;;;;;6.03;3.30;;;;;;;;;;5053604;28;20083;-72
2022/04/08 03:38:44;;;;;;;7.05;3.00;;;;;;;;;;5053550;28;20099;-72
2022/04/08 03:41:11;;;;;;;10.02;2.83;;;;;;;;;;5053045;28;20084;-72
2022/04/08 03:43:37;;;;;;;10.15;3.53;;;;;;;;;;5053226;28;20068;-72
2022/04/08 03:46:04;;;;;;;7.38;3.40;;;;;;;;;;5053125;28;20095;-72
2022/04/08 03:48:30;;;;;;;10.55;4.00;;;;;;;;;;5053250;28;20059;-72
2022/04/08 03:50:57;;;;;;;16.50;4.65;;;;;;;;;;5052011;28;20120;-72
2022/04/08 03:53:23;;;;;;;10.43;3.22;;;;;;;;;;5053243;28;20086;-72
2022/04/08 03:55:50;;;;;;;8.98;3.05;;;;;;;;;;5053123;28;20080;-72
2022/04/08 03:58:16;;;;;;;9.23;3.88;;;;;;;;;;5053225;28;20141;-72
2022/04/08 04:00:43;;;;;;;9.70;2.83;;;;;;;;;;5053127;28;20077;-72
2022/04/08 04:03:09;;;;;;;7.70;2.95;;;;;;;;;;5053124;28;20397;-72
2022/04/08 04:05:40;;;;;;;7.75;2.50;;;;;;;;;;5051678;28;20049;-72
2022/04/08 04:08:08;;;;;;;7.03;2.58;;;;;;;;;;5052921;28;20044;-72
2022/04/08 04:10:34;;;;;;;4.63;2.33;;;;;;;;;;5052707;28;20076;-72
2022/04/08 04:13:01;;;;;;;6.78;2.28;;;;;;;;;;5050993;28;20320;-72
2022/04/08 04:15:27;;;;;;;5.00;2.17;;;;;;;;;;5053199;28;20045;-72
2022/04/08 04:17:54;;;;;;;3.53;1.95;;;;;;;;;;5052742;28;20137;-72
2022/04/08 04:20:20;;;;;;;6.75;2.10;;;;;;;;;;5052459;28;20067;-72
2022/04/08 04:22:47;;;;;;;5.07;2.33;;;;;;;;;;5052422;28;20548;-72
2022/04/08 04:25:13;;;;;;;7.38;1.75;;;;;;;;;;5051098;28;20052;-72
2022/04/08 04:27:40;;;;;;;4.07;2.63;;;;;;;;;;5052662;28;20543;-72
2022/04/08 04:30:06;;;;;;;5.32;1.95;;;;;;;;;;5052270;28;20076;-72
2022/04/08 04:32:33;;;;;;;4.75;1.90;;;;;;;;;;5052388;28;20140;-73
2022/04/08 04:35:06;;;;;;;3.55;1.98;;;;;;;;;;5052323;28;20081;-73
2022/04/08 04:37:33;;;;;;;4.20;2.28;;;;;;;;;;5051155;28;20053;-73
2022/04/08 04:40:01;;;;;;;2.53;1.85;;;;;;;;;;5052121;28;20089;-72
2022/04/08 04:42:28;;;;;;;6.22;2.53;;;;;;;;;;5051091;28;20048;-73
2022/04/08 04:44:55;;;;;;;6.07;2.47;;;;;;;;;;5052393;28;20079;-73
2022/04/08 04:47:21;;;;;;;6.43;2.47;;;;;;;;;;5052044;28;20088;-73
2022/04/08 04:49:48;;;;;;;5.03;2.05;;;;;;;;;;5052170;28;20080;-73
2022/04/08 04:52:14;;;;;;;3.08;1.83;;;;;;;;;;5052144;28;20106;-72
2022/04/08 04:54:41;;;;;;;3.42;1.75;;;;;;;;;;5050711;28;20057;-72
2022/04/08 04:57:07;;;;;;;3.88;1.55;;;;;;;;;;5051971;28;20483;-73
2022/04/08 04:59:34;;;;;;;4.40;2.42;;;;;;;;;;5051844;28;20056;-72
2022/04/08 05:02:00;;;;;;;4.40;2.67;;;;;;;;;;5052383;28;20127;-72
2022/04/08 05:04:27;;;;;;;5.65;2.10;;;;;;;;;;5051551;28;20511;-73
2022/04/08 05:06:53;;;;;;;7.35;2.47;;;;;;;;;;5052019;28;20556;-73
2022/04/08 05:09:20;;;;;;;4.93;2.13;;;;;;;;;;5052121;28;20076;-73
2022/04/08 05:11:46;;;;;;;6.47;2.55;;;;;;;;;;5052070;28;20052;-73
2022/04/08 05:14:13;;;;;;;4.57;2.33;;;;;;;;;;5052025;28;20056;-73
2022/04/08 05:16:40;;;;;;;6.25;2.67;;;;;;;;;;5051746;28;20819;-73
2022/04/08 05:19:06;;;;;;;9.48;2.78;;;;;;;;;;5051550;28;20447;-74
2022/04/08 05:21:34;;;;;;;3.95;2.15;;;;;;;;;;5051859;28;20076;-74
2022/04/08 05:24:00;;;;;;;8.05;2.53;;;;;;;;;;5050608;28;20060;-72
2022/04/08 05:26:26;;;;;;;7.20;2.40;;;;;;;;;;5051403;28;20473;-72
2022/04/08 05:28:53;;;;;;;4.30;2.00;;;;;;;;;;5050237;28;20389;-73
2022/04/08 05:31:19;;;;;;;3.80;1.67;;;;;;;;;;5051504;28;20080;-73
2022/04/08 05:33:46;;;;;;;3.78;2.15;;;;;;;;;;5051364;28;20049;-73
2022/04/08 05:36:12;;;;;;;5.05;2.25;;;;;;;;;;5051693;28;20092;-73
2022/04/08 05:38:44;;;;;;;5.72;2.00;;;;;;;;;;5051369;28;20087;-73
2022/04/08 05:41:10;;;;;;;3.67;2.08;;;;;;;;;;5051292;28;20202;-73
2022/04/08 05:43:37;;;;;;;3.08;1.90;;;;;;;;;;5051407;28;20480;-73
2022/04/08 05:46:04;;;;;;;4.15;2.10;;;;;;;;;;5050900;28;20072;-73
2022/04/08 05:48:30;;;;;;;3.55;1.88;;;;;;;;;;5051297;28;20514;-73
2022/04/08 05:50:58;;;;;;;;;;;;;;;;;;5051819;28;20040;-73
2022/04/08 05:53:26;;;;;;;3.80;2.10;;;;;;;;;;5051532;28;20002;-73
2022/04/08 05:56:03;;;;;;;5.03;2.40;;;;;;;;;;5050178;28;20325;-76
2022/04/08 05:58:30;;;;;;;2.33;2.13;;;;;;;;;;5051247;28;20045;-73
2022/04/08 06:00:57;;;;;;;5.25;2.65;;;;;;;;;;5051445;28;20045;-72
2022/04/08 06:03:24;;;;;;;4.30;2.30;;;;;;;;;;5044477;28;20053;-71
2022/04/08 06:05:50;;;;;;;5.60;2.58;;;;;;;;;;5031091;28;20054;-74
2022/04/08 06:08:16;;;;;;;4.00;2.50;;;;;;;;;;5041829;28;20080;-72
2022/04/08 06:10:43;;;;;;;4.70;2.13;;;;;;;;;;5051333;28;20049;-72
2022/04/08 06:13:09;;;;;;;5.30;2.45;;;;;;;;;;5051047;28;20056;-72
2022/04/08 06:15:36;;;;;;;2.60;1.98;;;;;;;;;;5051019;28;20080;-72
2022/04/08 06:18:03;;;;;;;5.40;2.28;;;;;;;;;;5042413;28;20077;-76
2022/04/08 06:20:29;;;;;;;4.00;2.00;;;;;;;;;;5039539;28;20053;-77
2022/04/08 06:22:55;;;;;;;3.75;2.08;;;;;;;;;;5030592;28;20537;-77
2022/04/08 06:25:23;;;;;;;3.10;2.00;;;;;;;;;;5029347;28;20497;-76
2022/04/08 06:27:57;;;;;;;4.85;2.28;;;;;;;;;;5030807;28;20080;-75
2022/04/08 06:30:23;;;;;;;3.33;2.08;;;;;;;;;;5030931;28;20057;-73
2022/04/08 06:32:49;;;;;;;4.72;2.40;;;;;;;;;;5047324;28;20045;-79
2022/04/08 06:35:16;;;;;;;8.05;2.40;;;;;;;;;;5030426;28;20084;-76
2022/04/08 06:37:42;;;;;;;4.30;2.50;;;;;;;;;;5047519;28;20076;-74
2022/04/08 06:40:09;;;;;;;3.42;2.13;;;;;;;;;;5054419;28;20080;-75
2022/04/08 06:42:36;;;;;;;3.17;2.55;;;;;;;;;;5046090;28;20468;-70
2022/04/08 06:45:03;;;;;;;4.60;2.83;;;;;;;;;;5040092;28;20079;-72
2022/04/08 06:47:45;;;;;;;4.53;2.53;;;;;;;;;;5054271;28;20049;-72
2022/04/08 06:50:11;;;;;;;3.90;2.28;;;;;;;;;;5054376;28;20076;-72
2022/04/08 06:52:38;;;;;;;3.78;2.50;;;;;;;;;;5054000;28;20053;-73
2022/04/08 06:55:05;;;;;;;4.05;2.80;;;;;;;;;;5053936;28;20053;-74
2022/04/08 06:57:31;;;;;;;5.93;2.80;;;;;;;;;;5054341;28;20081;-73
2022/04/08 06:59:58;;;;;;;3.72;2.47;;;;;;;;;;5054298;28;20072;-72
2022/04/08 07:02:24;;;;;;;3.72;2.50;;;;;;;;;;5049442;28;20508;-70
2022/04/08 07:04:57;;;;;;;2.60;2.40;;;;;;;;;;5045648;28;20045;-74
2022/04/08 07:07:45;;;;;;;4.93;2.95;;;;;;;;;;5052809;28;20083;-73
2022/04/08 07:10:11;;;;;;;;;;;;;;;;;;5054311;28;20099;-73
2022/04/08 07:12:38;;;;;;;7.05;3.05;;;;;;;;;;5054051;28;19975;-73
2022/04/08 07:15:05;;;;;;;6.60;3.10;;;;;;;;;;5054053;28;20053;-73
2022/04/08 07:17:33;;;;;;;5.50;2.80;;;;;;;;;;5053916;28;20077;-73
2022/04/08 07:20:16;;;;;;;5.13;2.75;;;;;;;;;;5040981;28;20128;-73
2022/04/08 07:22:44;;;;;;;5.70;2.75;;;;;;;;;;5038169;28;20050;-74
2022/04/08 07:25:11;;;;;;;5.65;2.80;;;;;;;;;;5052640;28;20045;-73
2022/04/08 07:27:47;;;;;;;5.03;2.80;;;;;;;;;;5053909;28;20136;-73
2022/04/08 07:30:14;;;;;;;5.43;2.78;;;;;;;;;;5053565;28;20084;-72
2022/04/08 07:32:41;;;;;;;3.75;2.50;;;;;;;;;;5039176;28;20432;-73
2022/04/08 07:35:08;;;;;;;4.78;2.83;;;;;;;;;;5049575;28;20053;-73
2022/04/08 07:37:34;;;;;;;4.40;2.72;;;;;;;;;;5033281;28;20056;-74
2022/04/08 07:40:04;;;;;;;9.00;3.28;;;;;;;;;;5032396;28;20567;-72
2022/04/08 07:42:31;;;;;;;3.80;2.55;;;;;;;;;;5034556;28;20091;-73
2022/04/08 07:44:57;;;;;;;5.00;3.28;;;;;;;;;;5052044;28;20081;-73
2022/04/08 07:47:27;;;;;;;5.20;2.95;;;;;;;;;;5053004;28;20080;-73
2022/04/08 07:49:57;;;;;;;5.00;2.92;;;;;;;;;;5052253;28;20091;-72
2022/04/08 07:52:25;;;;;;;6.40;2.95;;;;;;;;;;5053266;28;20048;-73
2022/04/08 07:54:52;;;;;;;;;;;;;;;;;;5053426;28;20404;-73
2022/04/08 07:57:18;;;;;;;5.07;2.75;;;;;;;;;;5053035;28;19971;-73
2022/04/08 07:59:45;;;;;;;6.85;3.13;;;;;;;;;;5052859;28;20048;-73
2022/04/08 08:02:11;;;;;;;7.53;3.22;;;;;;;;;;5053099;28;20088;-73
2022/04/08 08:04:38;;;;;;;4.28;2.78;;;;;;;;;;5053053;28;20049;-74
2022/04/08 08:07:04;;;;;;;7.57;2.95;;;;;;;;;;5052806;28;20083;-73
2022/04/08 08:09:32;;;;;;;3.25;2.80;;;;;;;;;;5046006;28;20053;-74
2022/04/08 08:12:18;;;;;;;;;;;;;;;;;;5033142;28;20045;-74
2022/04/08 08:14:45;;;;;;;7.47;2.90;;;;;;;;;;5032532;28;19983;-74
2022/04/08 08:17:11;;;;;;;8.18;3.67;;;;;;;;;;5032356;28;20927;-74
2022/04/08 08:19:37;;;;;;;4.35;3.08;;;;;;;;;;5050904;28;20095;-74
2022/04/08 08:22:04;;;;;;;6.03;3.00;;;;;;;;;;5052414;28;20076;-74
2022/04/08 08:24:30;;;;;;;5.82;3.33;;;;;;;;;;5051929;28;20154;-74
2022/04/08 08:26:57;;;;;;;7.85;4.65;;;;;;;;;;5052553;28;20085;-73
2022/04/08 08:29:23;;;;;;;5.40;4.38;;;;;;;;;;5052679;28;20048;-74
2022/04/08 08:31:50;;;;;;;10.27;3.70;;;;;;;;;;5051160;28;20080;-74
2022/04/08 08:34:20;;;;;;;7.10;2.53;;;;;;;;;;5052642;28;20100;-74
2022/04/08 08:36:47;;;;;;;6.40;2.75;;;;;;;;;;5052203;28;20072;-74
2022/04/08 08:39:14;;;;;;;5.68;2.55;;;;;;;;;;5051068;28;20049;-74
2022/04/08 08:41:40;;;;;;;5.05;2.22;;;;;;;;;;5052125;28;20053;-74
2022/04/08 08:44:07;;;;;;;7.00;3.05;;;;;;;;;;5052018;28;20480;-74
2022/04/08 08:46:35;;;;;;;5.55;2.30;;;;;;;;;;5052433;28;20114;-74
2022/04/08 08:49:01;;;;;;;;;;;;;;;;;;5052131;28;20059;-74
2022/04/08 08:51:28;;;;;;;3.90;2.10;;;;;;;;;;5031628;28;19925;-74
2022/04/08 08:53:55;;;;;;;6.93;2.72;;;;;;;;;;5045314;28;20057;-74
2022/04/08 08:56:21;;;;;;;4.32;1.70;;;;;;;;;;5046511;28;20096;-74
2022/04/08 08:58:48;;;;;;;6.72;2.13;;;;;;;;;;5049728;28;20077;-71
2022/04/08 09:01:14;;;;;;;3.03;1.73;;;;;;;;;;5037882;28;20042;-73
2022/04/08 09:03:42;;;;;;;3.08;1.95;;;;;;;;;;5030605;28;20057;-72
2022/04/08 09:06:08;;;;;;;8.48;1.95;;;;;;;;;;5030257;28;20466;-73
2022/04/08 09:08:35;;;;;;;5.68;2.55;;;;;;;;;;5030547;28;20084;-74
2022/04/08 09:11:02;;;;;;;3.97;1.97;;;;;;;;;;5030442;28;20049;-73
2022/04/08 09:13:29;;;;;;;3.45;2.10;;;;;;;;;;5030442;28;20461;-73
2022/04/08 09:15:58;;;;;;;4.90;2.00;;;;;;;;;;5030125;28;20057;-73
2022/04/08 09:18:34;;;;;;;3.38;2.00;;;;;;;;;;5030335;28;20053;-73
2022/04/08 09:21:04;;;;;;;4.38;1.77;;;;;;;;;;5050348;28;20106;-73
2022/04/08 09:23:33;;;;;;;3.92;1.85;;;;;;;;;;5048711;28;20083;-72
2022/04/08 09:26:00;;;;;;;3.53;1.98;;;;;;;;;;5048930;28;20051;-73
2022/04/08 09:28:32;;;;;;;5.85;2.25;;;;;;;;;;5050214;28;20110;-73
2022/04/08 09:30:59;;;;;;;2.40;2.20;;;;;;;;;;5046757;28;20096;-72
2022/04/08 09:33:26;;;;;;;3.22;2.08;;;;;;;;;;5028964;28;20053;-73
2022/04/08 09:35:54;;;;;;;4.78;2.20;;;;;;;;;;5030385;28;20469;-73
2022/04/08 09:38:20;;;;;;;;;;;;;;;;;;5030618;28;20600;-72
2022/04/08 09:40:47;;;;;;;5.32;2.15;;;;;;;;;;5029865;28;19953;-72
2022/04/08 09:43:15;;;;;;;2.83;1.63;;;;;;;;;;5030097;28;20510;-72
2022/04/08 09:45:42;;;;;;;4.80;2.05;;;;;;;;;;5030175;28;20069;-73
2022/04/08 09:48:08;;;;;;;3.97;2.40;;;;;;;;;;5030180;28;20096;-72
2022/04/08 09:50:36;;;;;;;6.40;1.90;;;;;;;;;;5030113;28;20092;-73
2022/04/08 09:53:04;;;;;;;6.25;1.95;;;;;;;;;;5029745;28;20107;-73
2022/04/08 09:55:30;;;;;;;5.10;2.08;;;;;;;;;;5050456;28;20095;-73
2022/04/08 09:57:58;;;;;;;4.72;2.10;;;;;;;;;;5050097;28;20547;-73
2022/04/08 10:00:25;;;;;;;8.57;2.80;;;;;;;;;;5050098;28;20040;-73
2022/04/08 10:02:52;;;;;;;5.13;1.70;;;;;;;;;;5036490;28;20073;-74
2022/04/08 10:05:20;;;;;;;4.18;2.13;;;;;;;;;;5029914;28;20157;-74
2022/04/08 10:07:47;;;;;;;3.25;1.77;;;;;;;;;;5030082;28;20555;-74
2022/04/08 10:10:21;;;;;;;7.43;2.00;;;;;;;;;;5028903;28;20053;-73
2022/04/08 10:13:03;;;;;;;4.07;1.70;;;;;;;;;;5041732;28;20045;-72
2022/04/08 10:15:42;;;;;;;4.32;1.67;;;;;;;;;;5033812;28;20057;-73
2022/04/08 10:18:09;;;;;;;4.55;1.63;;;;;;;;;;5031615;28;20128;-73
2022/04/08 10:20:37;;;;;;;5.18;1.92;;;;;;;;;;5040252;28;20400;-73
2022/04/08 10:23:10;;;;;;;3.58;1.77;;;;;;;;;;5052588;28;20095;-73
2022/04/08 10:25:41;;;;;;;3.20;1.50;;;;;;;;;;5052809;28;20076;-73
2022/04/08 10:28:08;;;;;;;4.05;1.85;;;;;;;;;;5054039;28;20132;-76
2022/04/08 10:30:42;;;;;;;3.45;1.92;;;;;;;;;;5050917;28;20088;-74
2022/04/08 10:33:09;;;;;;;5.32;1.92;;;;;;;;;;5033446;28;20087;-73
2022/04/08 10:35:37;;;;;;;4.72;1.83;;;;;;;;;;5048336;28;20084;-73
2022/04/08 10:38:05;;;;;;;4.22;1.50;;;;;;;;;;5053716;28;20049;-73
2022/04/08 10:40:35;;;;;;;3.13;1.58;;;;;;;;;;5053386;28;20084;-73
2022/04/08 10:43:07;;;;;;;6.15;1.65;;;;;;;;;;5053790;28;20072;-74
2022/04/08 10:45:35;;;;;;;4.43;1.52;;;;;;;;;;5051883;28;20106;-73
2022/04/08 10:48:07;;;;;;;4.53;1.50;;;;;;;;;;5053357;28;20087;-75
2022/04/08 10:50:34;;;;;;;5.97;3.28;;;;;;;;;;5053269;28;20080;-74
2022/04/08 10:53:05;;;;;;;3.47;1.40;;;;;;;;;;5053297;28;20060;-75
2022/04/08 10:55:31;;;;;;;3.55;1.23;;;;;;;;;;5053444;28;20057;-74
2022/04/08 10:57:58;;;;;;;2.42;1.20;;;;;;;;;;5050625;28;20069;-76
2022/04/08 11:00:25;;;;;;;3.42;1.25;;;;;;;;;;5032954;28;20478;-74
2022/04/08 11:02:56;;;;;;;4.03;1.63;;;;;;;;;;5053174;28;20045;-76
2022/04/08 11:05:22;;;;;;;3.22;0.93;;;;;;;;;;5053181;28;20435;-74
2022/04/08 11:07:50;;;;;;;5.27;1.60;;;;;;;;;;5053099;28;20106;-76
2022/04/08 11:10:18;;;;;;;3.53;1.27;;;;;;;;;;5051670;28;20310;-74
2022/04/08 11:12:45;;;;;;;3.47;1.30;;;;;;;;;;5052055;28;20087;-74
2022/04/08 11:15:12;;;;;;;;;;;;;;;;;;5039641;28;20126;-74
2022/04/08 11:17:38;;;;;;;3.10;1.20;;;;;;;;;;5050525;28;20347;-74
2022/04/08 11:20:09;;;;;;;5.38;1.30;;;;;;;;;;5052724;28;20072;-74
2022/04/08 11:22:39;;;;;;;2.90;1.33;;;;;;;;;;5051384;28;20134;-74
2022/04/08 11:25:07;;;;;;;3.33;1.25;;;;;;;;;;5052502;28;20488;-74
2022/04/08 11:27:38;;;;;;;4.72;1.42;;;;;;;;;;5051406;28;20045;-74
2022/04/08 11:30:08;;;;;;;4.28;1.20;;;;;;;;;;5052673;28;20049;-74
2022/04/08 11:32:35;;;;;;;2.95;1.20;;;;;;;;;;5052713;28;20092;-74
2022/04/08 11:35:11;;;;;;;3.45;1.13;;;;;;;;;;5052555;28;20084;-74
2022/04/08 11:37:37;;;;;;;2.33;1.17;;;;;;;;;;5052634;28;20081;-74
2022/04/08 11:40:04;;;;;;;5.23;2.03;;;;;;;;;;5048978;28;20720;-74
2022/04/08 11:42:31;;;;;;;;;;;;;;;;;;5031268;28;21179;-74
2022/04/08 11:44:58;;;;;;;3.05;1.58;;;;;;;;;;5043790;28;19924;-74
2022/04/08 11:47:31;;;;;;;4.10;1.48;;;;;;;;;;5052421;28;20119;-74
2022/04/08 11:50:06;;;;;;;2.05;1.10;;;;;;;;;;5052615;28;20053;-74
2022/04/08 11:52:33;;;;;;;3.55;1.00;;;;;;;;;;5052221;28;20057;-75
2022/04/08 11:55:07;;;;;;;3.28;1.00;;;;;;;;;;5052089;28;20049;-74
2022/04/08 11:57:42;;;;;;;3.30;1.17;;;;;;;;;;5051871;28;20135;-73
2022/04/08 12:00:09;;;;;;;3.70;1.58;;;;;;;;;;5052166;28;20068;-75
2022/04/08 12:02:36;;;;;;;2.10;0.90;;;;;;;;;;5052443;28;20111;-75
2022/04/08 12:05:02;;;;;;;;;;;;;;;;;;5042915;28;20425;-75
2022/04/08 12:07:48;;;;;;;2.60;1.10;;;;;;;;;;5031528;28;20463;-75
2022/04/08 12:10:14;;;;;;;4.28;1.20;;;;;;;;;;5033394;28;20087;-74
2022/04/08 12:12:43;;;;;;;3.88;1.42;;;;;;;;;;5051794;28;20103;-74
2022/04/08 12:15:10;;;;;;;4.22;1.33;;;;;;;;;;5051520;28;20095;-74
2022/04/08 12:17:37;;;;;;;3.88;1.30;;;;;;;;;;5034827;28;20136;-73
2022/04/08 12:20:03;;;;;;;;;;;;;;;;;;5047578;28;20079;-73
2022/04/08 12:22:32;;;;;;;4.28;1.20;;;;;;;;;;5051663;28;20008;-73
2022/04/08 12:24:58;;;;;;;3.28;1.20;;;;;;;;;;5047242;28;20077;-73
2022/04/08 12:27:30;;;;;;;2.80;0.88;;;;;;;;;;5031305;28;20069;-73
2022/04/08 12:30:10;;;;;;;3.80;0.98;;;;;;;;;;5036372;28;20045;-73
2022/04/08 12:32:42;;;;;;;1.85;0.77;;;;;;;;;;5046957;28;20497;-72
2022/04/08 12:35:10;;;;;;;2.25;0.80;;;;;;;;;;5049894;28;20112;-72
2022/04/08 12:37:36;;;;;;;;;;;;;;;;;;5049829;28;20151;-73
2022/04/08 12:40:04;;;;;;;1.90;0.85;;;;;;;;;;5050682;28;19925;-73
2022/04/08 12:42:34;;;;;;;1.40;0.60;;;;;;;;;;5051159;28;20098;-74
2022/04/08 12:45:01;;;;;;;4.35;1.00;;;;;;;;;;5047600;28;20087;-74
2022/04/08 12:47:27;;;;;;;1.42;0.65;;;;;;;;;;5050981;28;20052;-74
2022/04/08 12:50:00;;;;;;;3.75;1.08;;;;;;;;;;5051221;28;20141;-74
2022/04/08 12:52:27;;;;;;;1.77;0.90;;;;;;;;;;5050046;28;20088;-73
2022/04/08 12:54:54;;;;;;;2.75;1.00;;;;;;;;;;5050569;28;20049;-74
2022/04/08 12:57:21;;;;;;;2.22;0.80;;;;;;;;;;5050352;28;20080;-75
2022/04/08 13:00:11;;;;;;;1.42;0.60;;;;;;;;;;5050274;28;20048;-75
2022/04/08 13:02:39;;;;;;;2.08;0.73;;;;;;;;;;5050415;28;20051;-75
2022/04/08 13:05:05;;;;;;;2.38;0.90;;;;;;;;;;5049069;28;20041;-75
2022/04/08 13:07:32;;;;;;;1.97;0.70;;;;;;;;;;5050106;28;20106;-74
2022/04/08 13:09:58;;;;;;;2.03;1.02;;;;;;;;;;5050156;28;20705;-74
2022/04/08 13:12:25;;;;;;;1.95;0.80;;;;;;;;;;5050093;28;20041;-74
2022/04/08 13:14:52;;;;;;;2.70;0.90;;;;;;;;;;5050327;28;20084;-77
2022/04/08 13:17:18;;;;;;;16.45;14.75;;;;;;;;;;5048534;28;20044;-74
2022/04/08 13:19:45;;;;;;;7.65;6.25;;;;;;;;;;5050625;28;20088;-76
2022/04/08 13:22:14;;;;;;;3.30;1.10;;;;;;;;;;5050435;28;20044;-75
2022/04/08 13:24:41;;;;;;;2.58;0.85;;;;;;;;;;5050719;28;20084;-75
2022/04/08 13:27:07;;;;;;;2.88;0.80;;;;;;;;;;5049964;28;20128;-75
2022/04/08 13:29:33;;;;;;;3.67;1.20;;;;;;;;;;5033764;28;20128;-75
2022/04/08 13:32:00;;;;;;;3.45;1.27;;;;;;;;;;5030160;28;20077;-73
2022/04/08 13:34:26;;;;;;;1.40;0.63;;;;;;;;;;5028958;28;20068;-72
2022/04/08 13:37:02;;;;;;;2.05;0.70;;;;;;;;;;5029943;28;20064;-72
2022/04/08 13:39:29;;;;;;;2.75;1.00;;;;;;;;;;5030216;28;20053;-73
2022/04/08 13:41:55;;;;;;;1.83;0.80;;;;;;;;;;5035370;28;20481;-73
2022/04/08 13:44:22;;;;;;;3.08;0.90;;;;;;;;;;5030041;28;20087;-73
2022/04/08 13:46:48;;;;;;;1.30;0.90;;;;;;;;;;5039764;28;20136;-74
2022/04/08 13:49:14;;;;;;;3.55;1.20;;;;;;;;;;5033978;28;20497;-73
2022/04/08 13:51:41;;;;;;;2.85;1.27;;;;;;;;;;5034423;28;20073;-73
2022/04/08 13:54:07;;;;;;;3.33;1.05;;;;;;;;;;5045970;28;20328;-73
2022/04/08 13:56:34;;;;;;;3.47;1.20;;;;;;;;;;5045872;28;20132;-73
2022/04/08 13:59:00;;;;;;;3.50;1.52;;;;;;;;;;5049677;28;20477;-72
2022/04/08 14:01:27;;;;;;;3.50;1.17;;;;;;;;;;5033821;28;20489;-72
2022/04/08 14:03:53;;;;;;;3.33;1.20;;;;;;;;;;5033940;28;20054;-73
2022/04/08 14:06:19;;;;;;;2.55;1.00;;;;;;;;;;5033270;28;20492;-73
2022/04/08 14:08:47;;;;;;;1.92;1.13;;;;;;;;;;5034022;28;20103;-74
2022/04/08 14:11:14;;;;;;;3.88;1.15;;;;;;;;;;5035701;28;20052;-75
2022/04/08 14:13:40;;;;;;;3.55;1.63;;;;;;;;;;5053323;28;20130;-75
2022/04/08 14:16:07;;;;;;;2.85;1.55;;;;;;;;;;5054814;28;20092;-75
2022/04/08 14:18:33;;;;;;;1.90;0.68;;;;;;;;;;5055076;28;20455;-75
2022/04/08 14:21:01;;;;;;;1.67;0.70;;;;;;;;;;5041461;28;20072;-74
2022/04/08 14:23:27;;;;;;;;;;;;;;;;;;5049750;28;20551;-72
2022/04/08 14:25:53;;;;;;;3.67;0.80;;;;;;;;;;5033676;28;19975;-72
2022/04/08 14:28:22;;;;;;;1.55;0.77;;;;;;;;;;5050155;28;20122;-71
2022/04/08 14:30:48;;;;;;;1.50;0.60;;;;;;;;;;5052438;28;20045;-73
2022/04/08 14:33:15;;;;;;;1.98;0.90;;;;;;;;;;5038903;28;20045;-73
2022/04/08 14:35:41;;;;;;;2.10;0.70;;;;;;;;;;5033604;28;20291;-72
2022/04/08 14:38:08;;;;;;;1.83;0.80;;;;;;;;;;5035502;28;20099;-70
2022/04/08 14:40:34;;;;;;;2.28;0.60;;;;;;;;;;5033217;28;20077;-69
2022/04/08 14:43:01;;;;;;;3.17;0.60;;;;;;;;;;5040035;28;20163;-70
2022/04/08 14:45:28;;;;;;;4.90;1.00;;;;;;;;;;5052331;28;20071;-71
2022/04/08 14:47:54;;;;;;;3.10;1.27;;;;;;;;;;5053903;28;20099;-70